Time;durP1;ratioP1;P1;durP2;ratioP2;P2;SDS_P1;SDS_P2;PMS_P1;PMS_P2;Temp;Humidity;BMP_temperature;BMP_pressure;BME280_temperature;BME280_humidity;BME280_pressure;Samples;Min_cycle;Max_cycle;Signal;HPM_P1;HPM_P2
2022/11/29 00:01:05;;;;;;;7.43;1.97;;;;;;;;;;5046603;28;20984;-66
2022/11/29 00:03:31;;;;;;;1.67;1.57;;;;;;;;;;5048421;28;20460;-66
2022/11/29 00:06:03;;;;;;;2.20;1.33;;;;;;;;;;5047607;28;20491;-67
2022/11/29 00:08:29;;;;;;;4.45;1.20;;;;;;;;;;5044611;28;20486;-66
2022/11/29 00:10:55;;;;;;;2.73;1.87;;;;;;;;;;5046890;28;20539;-67
2022/11/29 00:13:21;;;;;;;1.70;1.30;;;;;;;;;;5043232;28;20430;-66
2022/11/29 00:15:47;;;;;;;1.97;1.60;;;;;;;;;;5046572;28;20447;-66
2022/11/29 00:18:13;;;;;;;1.50;1.50;;;;;;;;;;5045596;28;21044;-66
2022/11/29 00:20:39;;;;;;;2.67;1.90;;;;;;;;;;5044231;28;20438;-66
2022/11/29 00:23:05;;;;;;;3.37;1.70;;;;;;;;;;5046404;28;20426;-66
2022/11/29 00:25:30;;;;;;;2.60;2.37;;;;;;;;;;5045928;28;20441;-66
2022/11/29 00:27:56;;;;;;;1.60;1.60;;;;;;;;;;5044386;28;20438;-66
2022/11/29 00:30:22;;;;;;;7.53;2.40;;;;;;;;;;5047397;28;20481;-67
2022/11/29 00:32:48;;;;;;;1.67;1.57;;;;;;;;;;5042814;28;20991;-66
2022/11/29 00:35:14;;;;;;;2.00;1.67;;;;;;;;;;5047274;28;20426;-66
2022/11/29 00:37:40;;;;;;;1.43;1.40;;;;;;;;;;5044994;28;20802;-65
2022/11/29 00:40:07;;;;;;;2.40;2.10;;;;;;;;;;5042898;28;20430;-66
2022/11/29 00:42:33;;;;;;;5.67;1.97;;;;;;;;;;5047002;28;20438;-66
2022/11/29 00:44:59;;;;;;;2.17;2.00;;;;;;;;;;5049390;28;21040;-66
2022/11/29 00:47:25;;;;;;;2.83;1.57;;;;;;;;;;5047107;28;20418;-66
2022/11/29 00:49:51;;;;;;;6.90;1.77;;;;;;;;;;5049829;28;20970;-66
2022/11/29 00:52:16;;;;;;;4.17;1.50;;;;;;;;;;5047084;28;20794;-66
2022/11/29 00:54:42;;;;;;;6.20;1.57;;;;;;;;;;5030779;28;20422;-66
2022/11/29 00:57:08;;;;;;;3.50;1.77;;;;;;;;;;5049325;28;20426;-67
2022/11/29 00:59:34;;;;;;;1.37;1.37;;;;;;;;;;5044945;28;20833;-66
2022/11/29 01:02:00;;;;;;;1.23;1.13;;;;;;;;;;5046895;28;20429;-66
2022/11/29 01:04:26;;;;;;;1.63;1.53;;;;;;;;;;5043189;28;20477;-66
2022/11/29 01:06:52;;;;;;;2.40;1.60;;;;;;;;;;5049706;28;20410;-66
2022/11/29 01:09:18;;;;;;;1.47;1.10;;;;;;;;;;5029711;28;20574;-66
2022/11/29 01:11:44;;;;;;;2.00;1.90;;;;;;;;;;5049400;28;20438;-66
2022/11/29 01:14:11;;;;;;;3.40;1.67;;;;;;;;;;5048249;28;20450;-66
2022/11/29 01:16:37;;;;;;;3.20;1.83;;;;;;;;;;5048046;28;20438;-66
2022/11/29 01:19:06;;;;;;;4.07;1.70;;;;;;;;;;5047963;28;20513;-66
2022/11/29 01:21:32;;;;;;;1.20;1.20;;;;;;;;;;5049171;28;20934;-66
2022/11/29 01:23:58;;;;;;;1.80;1.70;;;;;;;;;;5048055;28;20517;-66
2022/11/29 01:26:26;;;;;;;1.53;1.20;;;;;;;;;;5045839;28;20422;-66
2022/11/29 01:28:53;;;;;;;2.40;1.40;;;;;;;;;;5044960;28;20474;-66
2022/11/29 01:31:20;;;;;;;3.80;1.57;;;;;;;;;;5046684;28;20503;-67
2022/11/29 01:33:46;;;;;;;1.67;1.57;;;;;;;;;;5046658;28;20498;-67
2022/11/29 01:36:12;;;;;;;2.10;2.00;;;;;;;;;;5046873;28;20569;-66
2022/11/29 01:38:38;;;;;;;1.30;1.20;;;;;;;;;;5045132;28;20789;-66
2022/11/29 01:41:07;;;;;;;1.50;1.40;;;;;;;;;;5041136;28;20435;-66
2022/11/29 01:43:34;;;;;;;4.20;1.57;;;;;;;;;;5049467;28;20472;-66
2022/11/29 01:46:00;;;;;;;1.20;1.20;;;;;;;;;;5052684;28;20430;-67
2022/11/29 01:48:27;;;;;;;5.33;1.73;;;;;;;;;;5050067;28;20483;-66
2022/11/29 01:50:53;;;;;;;2.50;1.83;;;;;;;;;;5052967;28;20469;-66
2022/11/29 01:53:20;;;;;;;3.00;1.37;;;;;;;;;;5050630;28;20441;-67
2022/11/29 01:55:48;;;;;;;3.47;1.33;;;;;;;;;;5052031;28;20978;-67
2022/11/29 01:58:14;;;;;;;3.07;1.43;;;;;;;;;;5049690;28;20461;-66
2022/11/29 02:00:40;;;;;;;3.70;1.40;;;;;;;;;;5049063;28;20520;-67
2022/11/29 02:03:11;;;;;;;1.40;1.40;;;;;;;;;;5050440;28;20468;-66
2022/11/29 02:05:45;;;;;;;1.10;1.10;;;;;;;;;;5051761;28;20425;-66
2022/11/29 02:08:13;;;;;;;3.37;1.60;;;;;;;;;;5051484;28;20490;-66
2022/11/29 02:10:41;;;;;;;1.80;1.30;;;;;;;;;;5048680;28;20921;-66
2022/11/29 02:13:20;;;;;;;9.80;1.70;;;;;;;;;;5052118;28;20411;-66
2022/11/29 02:15:53;;;;;;;1.40;1.30;;;;;;;;;;5051353;28;20449;-67
2022/11/29 02:18:23;;;;;;;3.13;2.33;;;;;;;;;;5050749;28;20438;-67
2022/11/29 02:21:08;;;;;;;2.60;1.30;;;;;;;;;;5049214;28;20981;-66
2022/11/29 02:23:40;;;;;;;1.60;1.43;;;;;;;;;;5050615;28;20926;-66
2022/11/29 02:26:06;;;;;;;3.50;1.90;;;;;;;;;;5051164;28;20438;-66
2022/11/29 02:28:41;;;;;;;7.20;1.70;;;;;;;;;;5048148;28;20453;-66
2022/11/29 02:31:37;;;;;;;1.83;1.70;;;;;;;;;;5050818;28;20446;-66
2022/11/29 02:34:06;;;;;;;1.67;1.57;;;;;;;;;;4980841;28;20492;-66
2022/11/29 02:36:35;;;;;;;1.70;1.23;;;;;;;;;;5052126;28;20425;-66
2022/11/29 02:39:20;;;;;;;1.80;1.33;;;;;;;;;;5050466;28;20541;-67
2022/11/29 02:41:58;;;;;;;2.17;1.50;;;;;;;;;;5045034;28;20799;-66
2022/11/29 02:44:43;;;;;;;6.60;1.93;;;;;;;;;;5045188;28;20454;-66
2022/11/29 02:47:27;;;;;;;3.07;1.63;;;;;;;;;;5050259;28;20430;-66
2022/11/29 02:50:19;;;;;;;1.13;1.13;;;;;;;;;;5045023;28;20481;-66
2022/11/29 02:52:49;;;;;;;1.97;1.77;;;;;;;;;;5018526;28;20449;-67
2022/11/29 02:55:19;;;;;;;2.10;1.77;;;;;;;;;;5050119;28;20437;-67
2022/11/29 02:57:50;;;;;;;4.97;2.00;;;;;;;;;;5046308;28;21001;-67
2022/11/29 03:00:18;;;;;;;3.27;1.30;;;;;;;;;;5049983;28;20489;-66
2022/11/29 03:02:53;;;;;;;7.43;1.47;;;;;;;;;;5050154;28;20519;-67
2022/11/29 03:05:38;;;;;;;1.50;1.40;;;;;;;;;;5050883;28;20430;-66
2022/11/29 03:08:22;;;;;;;1.93;1.40;;;;;;;;;;5049179;28;20929;-66
2022/11/29 03:11:07;;;;;;;1.60;1.27;;;;;;;;;;5050263;28;21005;-67
2022/11/29 03:14:02;;;;;;;1.23;1.20;;;;;;;;;;5044960;28;20516;-66
2022/11/29 03:16:37;;;;;;;1.50;1.33;;;;;;;;;;5047055;28;20427;-66
2022/11/29 03:19:10;;;;;;;1.13;1.13;;;;;;;;;;5050152;28;20426;-66
2022/11/29 03:21:48;;;;;;;1.10;1.10;;;;;;;;;;5050969;28;20485;-66
2022/11/29 03:24:23;;;;;;;2.60;1.70;;;;;;;;;;5047516;28;20465;-66
2022/11/29 03:26:51;;;;;;;4.80;1.80;;;;;;;;;;5050683;28;21119;-66
2022/11/29 03:29:28;;;;;;;3.63;3.40;;;;;;;;;;5051093;28;20781;-66
2022/11/29 03:32:12;;;;;;;2.37;2.17;;;;;;;;;;5032532;28;20434;-66
2022/11/29 03:34:55;;;;;;;3.73;1.80;;;;;;;;;;5049802;28;20422;-66
2022/11/29 03:37:26;;;;;;;1.53;1.43;;;;;;;;;;5049405;28;20802;-66
2022/11/29 03:39:57;;;;;;;5.83;3.47;;;;;;;;;;5048940;28;20437;-66
2022/11/29 03:42:26;;;;;;;5.40;4.67;;;;;;;;;;5048360;28;20437;-66
2022/11/29 03:45:18;;;;;;;6.27;4.60;;;;;;;;;;5045048;28;20430;-66
2022/11/29 03:48:07;;;;;;;5.07;3.80;;;;;;;;;;5046801;28;20431;-67
2022/11/29 03:50:36;;;;;;;7.70;3.53;;;;;;;;;;5038432;28;20881;-66
2022/11/29 03:53:05;;;;;;;4.60;3.87;;;;;;;;;;5047292;28;20526;-67
2022/11/29 03:55:33;;;;;;;8.27;4.27;;;;;;;;;;5044929;28;20445;-66
2022/11/29 03:58:17;;;;;;;3.70;3.40;;;;;;;;;;5050020;28;20448;-66
2022/11/29 04:00:46;;;;;;;4.77;2.57;;;;;;;;;;5028714;28;20470;-67
2022/11/29 04:03:21;;;;;;;4.77;3.10;;;;;;;;;;5046421;28;20454;-66
2022/11/29 04:05:53;;;;;;;2.20;2.10;;;;;;;;;;5046689;28;20912;-66
2022/11/29 04:08:25;;;;;;;2.87;2.47;;;;;;;;;;5050344;28;20795;-66
2022/11/29 04:11:24;;;;;;;3.33;2.17;;;;;;;;;;5046940;28;20572;-66
2022/11/29 04:14:02;;;;;;;2.57;2.37;;;;;;;;;;5002767;28;20438;-66
2022/11/29 04:16:47;;;;;;;4.63;2.70;;;;;;;;;;5047816;28;20833;-67
2022/11/29 04:19:35;;;;;;;1.97;1.87;;;;;;;;;;5048618;28;20513;-66
2022/11/29 04:22:20;;;;;;;5.60;2.10;;;;;;;;;;5046123;28;20461;-67
2022/11/29 04:25:01;;;;;;;2.03;1.90;;;;;;;;;;5044193;28;20436;-66
2022/11/29 04:27:39;;;;;;;3.30;2.23;;;;;;;;;;5030689;28;20449;-67
2022/11/29 04:30:11;;;;;;;2.43;2.07;;;;;;;;;;5048748;28;20620;-67
2022/11/29 04:32:56;;;;;;;8.47;3.67;;;;;;;;;;5049302;28;20429;-65
2022/11/29 04:35:29;;;;;;;2.63;2.43;;;;;;;;;;5045437;28;20438;-67
2022/11/29 04:38:07;;;;;;;2.70;2.43;;;;;;;;;;5050079;28;20600;-66
2022/11/29 04:40:52;;;;;;;2.77;2.57;;;;;;;;;;5049288;28;20438;-67
2022/11/29 04:43:37;;;;;;;4.37;3.30;;;;;;;;;;5049145;28;20418;-66
2022/11/29 04:46:18;;;;;;;2.37;2.27;;;;;;;;;;5047389;28;20439;-66
2022/11/29 04:49:09;;;;;;;3.23;2.50;;;;;;;;;;5049914;28;20431;-67
2022/11/29 04:51:35;;;;;;;3.70;2.40;;;;;;;;;;5045816;28;20453;-66
2022/11/29 04:54:11;;;;;;;2.00;1.90;;;;;;;;;;5048209;28;20427;-66
2022/11/29 04:56:47;;;;;;;5.70;1.87;;;;;;;;;;5047777;28;20481;-67
2022/11/29 04:59:32;;;;;;;1.47;1.40;;;;;;;;;;5047864;28;20552;-66
2022/11/29 05:02:06;;;;;;;1.23;1.23;;;;;;;;;;5043305;28;20798;-66
2022/11/29 05:04:40;;;;;;;4.60;1.53;;;;;;;;;;5046959;28;20429;-67
2022/11/29 05:07:11;;;;;;;2.03;1.97;;;;;;;;;;5048657;28;20444;-65
2022/11/29 05:09:55;;;;;;;2.00;1.40;;;;;;;;;;5048608;28;20485;-66
2022/11/29 05:12:24;;;;;;;3.20;2.90;;;;;;;;;;5049189;28;20422;-66
2022/11/29 05:14:50;;;;;;;2.20;2.10;;;;;;;;;;5048680;28;20438;-66
2022/11/29 05:17:35;;;;;;;5.30;1.97;;;;;;;;;;5048075;28;20443;-66
2022/11/29 05:20:19;;;;;;;3.77;2.43;;;;;;;;;;5052915;28;20430;-66
2022/11/29 05:22:51;;;;;;;3.37;1.60;;;;;;;;;;5052932;28;20433;-66
2022/11/29 05:25:36;;;;;;;12.03;1.70;;;;;;;;;;5052239;28;20438;-67
2022/11/29 05:28:09;;;;;;;2.20;1.43;;;;;;;;;;5035615;28;20501;-67
2022/11/29 05:30:45;;;;;;;1.90;1.80;;;;;;;;;;5052952;28;20563;-66
2022/11/29 05:33:21;;;;;;;6.03;1.53;;;;;;;;;;5048547;28;20517;-66
2022/11/29 05:35:47;;;;;;;1.40;1.30;;;;;;;;;;5052842;28;20458;-66
2022/11/29 05:38:12;;;;;;;3.30;1.73;;;;;;;;;;5053044;28;20465;-66
2022/11/29 05:40:57;;;;;;;3.57;2.33;;;;;;;;;;5053090;28;20426;-66
2022/11/29 05:43:41;;;;;;;1.93;1.80;;;;;;;;;;5051519;28;20407;-67
2022/11/29 05:46:13;;;;;;;3.83;2.40;;;;;;;;;;5031289;28;20434;-67
2022/11/29 05:48:58;;;;;;;3.70;1.60;;;;;;;;;;5050396;28;20480;-66
2022/11/29 05:51:27;;;;;;;7.67;5.87;;;;;;;;;;5051659;28;20564;-66
2022/11/29 05:54:12;;;;;;;10.87;7.53;;;;;;;;;;5050959;28;20445;-66
2022/11/29 05:56:47;;;;;;;9.87;3.73;;;;;;;;;;5046776;28;20854;-66
2022/11/29 05:59:16;;;;;;;2.20;1.70;;;;;;;;;;5052670;28;21225;-66
2022/11/29 06:01:55;;;;;;;3.80;2.17;;;;;;;;;;5052177;28;20989;-67
2022/11/29 06:04:39;;;;;;;2.40;2.23;;;;;;;;;;5052101;28;20949;-67
2022/11/29 06:07:13;;;;;;;1.87;1.87;;;;;;;;;;5052986;28;21165;-66
2022/11/29 06:10:00;;;;;;;3.63;2.97;;;;;;;;;;5052646;28;20527;-66
2022/11/29 06:12:29;;;;;;;3.07;2.80;;;;;;;;;;5048373;28;20934;-66
2022/11/29 06:14:55;;;;;;;5.70;4.43;;;;;;;;;;5049072;28;20529;-67
2022/11/29 06:17:27;;;;;;;6.23;5.63;;;;;;;;;;5050766;28;20489;-66
2022/11/29 06:20:08;;;;;;;7.23;4.90;;;;;;;;;;5051889;28;20515;-66
2022/11/29 06:22:56;;;;;;;5.07;3.70;;;;;;;;;;5048188;28;20426;-66
2022/11/29 06:25:22;;;;;;;4.40;3.30;;;;;;;;;;5052106;28;20426;-66
2022/11/29 06:28:08;;;;;;;3.53;3.33;;;;;;;;;;5045705;28;20515;-66
2022/11/29 06:30:52;;;;;;;5.77;4.37;;;;;;;;;;5047850;28;20480;-67
2022/11/29 06:33:21;;;;;;;3.07;2.90;;;;;;;;;;5027739;28;20427;-66
2022/11/29 06:35:53;;;;;;;3.40;3.20;;;;;;;;;;5051872;28;20529;-67
2022/11/29 06:38:26;;;;;;;4.07;3.87;;;;;;;;;;5047762;28;20424;-67
2022/11/29 06:40:53;;;;;;;5.60;5.10;;;;;;;;;;5045075;28;20481;-66
2022/11/29 06:43:19;;;;;;;7.70;5.43;;;;;;;;;;5047650;28;20454;-67
2022/11/29 06:45:48;;;;;;;6.80;6.13;;;;;;;;;;5047982;28;20453;-66
2022/11/29 06:48:18;;;;;;;5.27;4.83;;;;;;;;;;5043569;28;20439;-66
2022/11/29 06:51:06;;;;;;;19.70;11.60;;;;;;;;;;5048817;28;20477;-67
2022/11/29 06:53:51;;;;;;;13.70;11.53;;;;;;;;;;5050369;28;20489;-66
2022/11/29 06:56:20;;;;;;;8.80;8.00;;;;;;;;;;5048557;28;20437;-66
2022/11/29 06:58:49;;;;;;;7.07;6.47;;;;;;;;;;5029609;28;20444;-66
2022/11/29 07:01:33;;;;;;;8.63;6.80;;;;;;;;;;5045719;28;20454;-66
2022/11/29 07:03:59;;;;;;;13.80;9.03;;;;;;;;;;5047451;28;20518;-66
2022/11/29 07:06:26;;;;;;;16.03;11.83;;;;;;;;;;5049668;28;20607;-65
2022/11/29 07:08:58;;;;;;;19.07;9.30;;;;;;;;;;5038190;28;20439;-65
2022/11/29 07:11:24;;;;;;;10.90;6.77;;;;;;;;;;5013097;28;20466;-66
2022/11/29 07:13:50;;;;;;;11.57;7.43;;;;;;;;;;5032177;28;20435;-66
2022/11/29 07:16:29;;;;;;;13.57;6.60;;;;;;;;;;5032228;28;21224;-65
2022/11/29 07:19:02;;;;;;;18.37;10.40;;;;;;;;;;5033802;28;20541;-66
2022/11/29 07:21:27;;;;;;;15.77;10.90;;;;;;;;;;5033469;28;20445;-65
2022/11/29 07:23:59;;;;;;;11.23;6.27;;;;;;;;;;5050422;28;20431;-68
2022/11/29 07:26:39;;;;;;;5.33;4.93;;;;;;;;;;5033795;28;20523;-66
2022/11/29 07:29:24;;;;;;;3.87;3.50;;;;;;;;;;5040705;28;20473;-65
2022/11/29 07:32:23;;;;;;;4.30;3.80;;;;;;;;;;5038314;28;20538;-67
2022/11/29 07:35:03;;;;;;;3.73;3.40;;;;;;;;;;4994228;28;20426;-66
2022/11/29 07:37:32;;;;;;;4.27;3.00;;;;;;;;;;5048828;28;20932;-66
2022/11/29 07:40:02;;;;;;;3.00;2.90;;;;;;;;;;5026339;28;20797;-66
2022/11/29 07:42:35;;;;;;;3.43;3.13;;;;;;;;;;5004464;28;20462;-66
2022/11/29 07:45:14;;;;;;;4.00;3.50;;;;;;;;;;5030229;28;20498;-68
2022/11/29 07:47:40;;;;;;;4.40;4.03;;;;;;;;;;5026173;28;20430;-67
2022/11/29 07:50:07;;;;;;;5.63;4.07;;;;;;;;;;5002669;28;20521;-66
2022/11/29 07:52:34;;;;;;;6.70;4.20;;;;;;;;;;5031287;28;20448;-66
2022/11/29 07:55:01;;;;;;;6.07;5.47;;;;;;;;;;5025423;28;20788;-66
2022/11/29 07:57:27;;;;;;;7.90;5.00;;;;;;;;;;5026505;28;20777;-66
2022/11/29 07:59:53;;;;;;;6.47;5.87;;;;;;;;;;5028424;28;21080;-66
2022/11/29 08:02:29;;;;;;;13.70;6.30;;;;;;;;;;5034116;28;20763;-66
2022/11/29 08:04:55;;;;;;;11.50;5.17;;;;;;;;;;5042287;28;20515;-66
2022/11/29 08:07:21;;;;;;;5.43;4.93;;;;;;;;;;5020912;28;20931;-66
2022/11/29 08:09:47;;;;;;;68.80;27.50;;;;;;;;;;5027142;28;20488;-66
2022/11/29 08:12:13;;;;;;;55.03;25.60;;;;;;;;;;5045714;28;20466;-65
2022/11/29 08:14:39;;;;;;;41.70;21.50;;;;;;;;;;5048023;28;20449;-67
2022/11/29 08:17:05;;;;;;;19.93;11.00;;;;;;;;;;5049418;28;20497;-66
2022/11/29 08:19:31;;;;;;;28.47;15.20;;;;;;;;;;5049863;28;20418;-66
2022/11/29 08:21:56;;;;;;;9.07;6.53;;;;;;;;;;5036256;28;20434;-65
2022/11/29 08:24:23;;;;;;;10.03;6.40;;;;;;;;;;5044459;28;20423;-67
2022/11/29 08:26:49;;;;;;;4.50;4.10;;;;;;;;;;5049975;28;20434;-66
2022/11/29 08:29:15;;;;;;;5.10;3.53;;;;;;;;;;5048937;28;20474;-66
2022/11/29 08:31:41;;;;;;;3.47;3.17;;;;;;;;;;5049544;28;20565;-66
2022/11/29 08:34:08;;;;;;;5.93;4.20;;;;;;;;;;5048979;28;20421;-65
2022/11/29 08:36:34;;;;;;;6.70;4.00;;;;;;;;;;5047801;28;20446;-66
2022/11/29 08:39:01;;;;;;;7.60;5.03;;;;;;;;;;5047788;28;20533;-65
2022/11/29 08:41:29;;;;;;;12.33;5.80;;;;;;;;;;5048583;28;20478;-67
2022/11/29 08:43:55;;;;;;;9.00;5.40;;;;;;;;;;5049671;28;20423;-65
2022/11/29 08:46:21;;;;;;;11.50;4.73;;;;;;;;;;5046744;28;20445;-67
2022/11/29 08:49:07;;;;;;;5.70;4.80;;;;;;;;;;5049258;28;20814;-66
2022/11/29 08:51:33;;;;;;;9.87;5.37;;;;;;;;;;5049621;28;20460;-66
2022/11/29 08:54:00;;;;;;;6.20;5.63;;;;;;;;;;5048843;28;20776;-65
2022/11/29 08:56:26;;;;;;;7.43;4.30;;;;;;;;;;5044512;28;20444;-65
2022/11/29 08:58:52;;;;;;;4.20;3.57;;;;;;;;;;5048702;28;20419;-66
2022/11/29 09:01:18;;;;;;;6.80;5.27;;;;;;;;;;5047670;28;20476;-65
2022/11/29 09:04:04;;;;;;;6.43;5.83;;;;;;;;;;5048905;28;20431;-65
2022/11/29 09:06:31;;;;;;;4.40;4.00;;;;;;;;;;5047447;28;20473;-66
2022/11/29 09:08:58;;;;;;;6.03;5.53;;;;;;;;;;5045308;28;20426;-66
2022/11/29 09:11:25;;;;;;;11.27;6.77;;;;;;;;;;5030395;28;20426;-66
2022/11/29 09:13:54;;;;;;;11.30;5.83;;;;;;;;;;5049360;28;20541;-66
2022/11/29 09:16:21;;;;;;;11.90;7.90;;;;;;;;;;5045455;28;20432;-66
2022/11/29 09:18:51;;;;;;;8.07;6.80;;;;;;;;;;5045242;28;20496;-66
2022/11/29 09:21:17;;;;;;;10.97;7.53;;;;;;;;;;5031369;28;20426;-67
2022/11/29 09:23:44;;;;;;;14.07;10.47;;;;;;;;;;5031358;28;20556;-67
2022/11/29 09:26:10;;;;;;;5.23;4.40;;;;;;;;;;5049215;28;20423;-67
2022/11/29 09:28:37;;;;;;;4.67;2.77;;;;;;;;;;5045270;28;20438;-66
2022/11/29 09:31:03;;;;;;;3.37;2.40;;;;;;;;;;5030437;28;20481;-67
2022/11/29 09:33:29;;;;;;;5.17;3.30;;;;;;;;;;5049117;28;20889;-66
2022/11/29 09:35:58;;;;;;;2.40;2.20;;;;;;;;;;5049383;28;20434;-66
2022/11/29 09:38:24;;;;;;;7.60;2.50;;;;;;;;;;5045536;28;20449;-66
2022/11/29 09:40:53;;;;;;;2.40;2.30;;;;;;;;;;5029948;28;20952;-65
2022/11/29 09:43:22;;;;;;;2.50;2.30;;;;;;;;;;5046866;28;20426;-66
2022/11/29 09:45:53;;;;;;;1.80;1.80;;;;;;;;;;5046768;28;20491;-66
2022/11/29 09:48:22;;;;;;;2.20;2.10;;;;;;;;;;5044354;28;20430;-65
2022/11/29 09:50:53;;;;;;;2.33;1.87;;;;;;;;;;5049021;28;20474;-65
2022/11/29 09:53:42;;;;;;;3.27;2.73;;;;;;;;;;5046167;28;20509;-66
2022/11/29 09:56:11;;;;;;;2.23;2.00;;;;;;;;;;5046692;28;20771;-66
2022/11/29 09:58:43;;;;;;;2.40;2.23;;;;;;;;;;5046741;28;20457;-66
2022/11/29 10:01:12;;;;;;;2.13;1.90;;;;;;;;;;5045596;28;20520;-66
2022/11/29 10:03:44;;;;;;;4.80;2.30;;;;;;;;;;5051811;28;20419;-66
2022/11/29 10:06:13;;;;;;;3.73;2.80;;;;;;;;;;5052773;28;20453;-67
2022/11/29 10:08:51;;;;;;;4.13;3.93;;;;;;;;;;5052120;28;20899;-67
2022/11/29 10:11:20;;;;;;;6.10;4.20;;;;;;;;;;5047070;28;20488;-65
2022/11/29 10:13:50;;;;;;;6.30;3.80;;;;;;;;;;5051613;28;20445;-67
2022/11/29 10:16:27;;;;;;;5.20;3.30;;;;;;;;;;5046453;28;20434;-66
2022/11/29 10:19:14;;;;;;;7.87;3.57;;;;;;;;;;5049373;28;20473;-66
2022/11/29 10:21:41;;;;;;;3.60;3.00;;;;;;;;;;5051990;28;20934;-66
2022/11/29 10:24:14;;;;;;;8.50;6.30;;;;;;;;;;5052483;28;20422;-66
2022/11/29 10:26:42;;;;;;;2.53;2.43;;;;;;;;;;5031287;28;20934;-66
2022/11/29 10:29:12;;;;;;;3.80;2.93;;;;;;;;;;5050453;28;20946;-66
2022/11/29 10:31:42;;;;;;;4.97;2.60;;;;;;;;;;5051156;28;20460;-67
2022/11/29 10:34:19;;;;;;;21.43;11.40;;;;;;;;;;5050374;28;20950;-66
2022/11/29 10:36:49;;;;;;;71.20;23.67;;;;;;;;;;5052148;28;20419;-66
2022/11/29 10:39:16;;;;;;;37.93;19.43;;;;;;;;;;5051653;28;20993;-69
2022/11/29 10:41:42;;;;;;;8.27;4.13;;;;;;;;;;5050377;28;20986;-66
2022/11/29 10:44:11;;;;;;;6.30;2.20;;;;;;;;;;5032149;28;20442;-67
2022/11/29 10:46:38;;;;;;;6.33;1.90;;;;;;;;;;5050175;28;20532;-67
2022/11/29 10:49:05;;;;;;;4.83;3.83;;;;;;;;;;5047421;28;20445;-66
2022/11/29 10:51:32;;;;;;;5.00;2.33;;;;;;;;;;5050561;28;21080;-67
2022/11/29 10:54:18;;;;;;;7.80;2.13;;;;;;;;;;5051592;28;20895;-67
2022/11/29 10:56:45;;;;;;;4.97;2.43;;;;;;;;;;5014963;28;20931;-67
2022/11/29 10:59:19;;;;;;;4.20;2.10;;;;;;;;;;5033241;28;20475;-67
2022/11/29 11:01:45;;;;;;;5.10;3.30;;;;;;;;;;5033616;28;20447;-67
2022/11/29 11:04:24;;;;;;;6.97;3.30;;;;;;;;;;5027798;28;20434;-66
2022/11/29 11:06:55;;;;;;;7.27;4.43;;;;;;;;;;5026530;28;20446;-66
2022/11/29 11:09:33;;;;;;;7.00;3.20;;;;;;;;;;5029126;28;20488;-67
2022/11/29 11:12:01;;;;;;;7.27;2.27;;;;;;;;;;5030300;28;20439;-66
2022/11/29 11:14:36;;;;;;;18.67;5.40;;;;;;;;;;5027776;28;20492;-67
2022/11/29 11:17:21;;;;;;;118.17;49.07;;;;;;;;;;5038872;28;21617;-66
2022/11/29 11:19:54;;;;;;;34.33;17.70;;;;;;;;;;5032090;28;20531;-66
2022/11/29 11:22:22;;;;;;;18.53;4.40;;;;;;;;;;5027543;28;20548;-67
2022/11/29 11:24:55;;;;;;;4.50;2.67;;;;;;;;;;5030677;28;20446;-66
2022/11/29 11:27:28;;;;;;;9.60;2.43;;;;;;;;;;5030845;28;20932;-66
2022/11/29 11:29:54;;;;;;;5.80;2.90;;;;;;;;;;5039514;28;20573;-66
2022/11/29 11:32:20;;;;;;;5.13;2.00;;;;;;;;;;5044465;28;20434;-66
2022/11/29 11:34:54;;;;;;;5.23;2.90;;;;;;;;;;5048426;28;20605;-66
2022/11/29 11:37:20;;;;;;;12.93;3.43;;;;;;;;;;5048421;28;20509;-66
2022/11/29 11:39:47;;;;;;;7.83;3.80;;;;;;;;;;5047707;28;20525;-66
2022/11/29 11:42:38;;;;;;;6.70;3.33;;;;;;;;;;5050540;28;20521;-66
2022/11/29 11:48:04;;;;;;;4.90;2.60;;;;;;;;;;5031236;26;20489;-66
2022/11/29 11:50:46;;;;;;;2.93;1.80;;;;;;;;;;5046844;28;20569;-67
2022/11/29 11:53:21;;;;;;;2.33;2.20;;;;;;;;;;5045741;28;20441;-66
2022/11/29 11:55:56;;;;;;;9.77;2.63;;;;;;;;;;5046223;28;20415;-66
2022/11/29 11:58:22;;;;;;;11.20;2.30;;;;;;;;;;5046131;28;20976;-67
2022/11/29 12:00:51;;;;;;;5.80;2.60;;;;;;;;;;5047255;28;20938;-66
2022/11/29 12:03:37;;;;;;;4.10;2.27;;;;;;;;;;5043879;28;20467;-66
2022/11/29 12:06:17;;;;;;;12.90;3.17;;;;;;;;;;5032113;28;21898;-66
2022/11/29 12:08:44;;;;;;;3.77;2.47;;;;;;;;;;5029879;28;20457;-66
2022/11/29 12:11:12;;;;;;;12.40;3.90;;;;;;;;;;5029554;28;20514;-66
2022/11/29 12:13:40;;;;;;;4.07;3.23;;;;;;;;;;5033198;28;20430;-67
2022/11/29 12:16:10;;;;;;;2.80;2.70;;;;;;;;;;5036527;28;20558;-67
2022/11/29 12:18:43;;;;;;;8.97;3.83;;;;;;;;;;5037546;28;20986;-68
2022/11/29 12:21:23;;;;;;;3.23;2.47;;;;;;;;;;5039288;28;20442;-67
2022/11/29 12:23:49;;;;;;;7.07;3.40;;;;;;;;;;5029324;28;20447;-67
2022/11/29 12:26:14;;;;;;;3.20;1.40;;;;;;;;;;5038974;28;20438;-66
2022/11/29 12:28:42;;;;;;;5.50;1.53;;;;;;;;;;5046208;28;20477;-66
2022/11/29 12:31:14;;;;;;;10.60;1.60;;;;;;;;;;5048160;28;20233;-67
2022/11/29 12:33:40;;;;;;;5.80;1.77;;;;;;;;;;5047712;28;20946;-67
2022/11/29 12:36:06;;;;;;;5.03;2.20;;;;;;;;;;5042390;28;20446;-67
2022/11/29 12:38:52;;;;;;;3.93;2.10;;;;;;;;;;5046054;28;20426;-67
2022/11/29 12:41:18;;;;;;;2.50;1.30;;;;;;;;;;5036100;28;20520;-67
2022/11/29 12:43:55;;;;;;;2.93;2.03;;;;;;;;;;5045340;28;20454;-67
2022/11/29 12:46:24;;;;;;;5.03;2.17;;;;;;;;;;5041951;28;20628;-67
2022/11/29 12:48:51;;;;;;;9.73;2.97;;;;;;;;;;5039466;28;20438;-67
2022/11/29 12:51:31;;;;;;;5.60;2.47;;;;;;;;;;5046074;28;20945;-67
2022/11/29 12:54:16;;;;;;;2.97;1.40;;;;;;;;;;5047466;28;20577;-67
2022/11/29 12:56:42;;;;;;;28.03;4.63;;;;;;;;;;5047011;28;20433;-67
2022/11/29 12:59:14;;;;;;;2.27;2.07;;;;;;;;;;5044298;28;20419;-68
2022/11/29 13:02:09;;;;;;;2.60;2.17;;;;;;;;;;5030835;28;20533;-68
2022/11/29 13:04:41;;;;;;;3.57;1.50;;;;;;;;;;4992872;28;20465;-68
2022/11/29 13:07:21;;;;;;;4.83;3.10;;;;;;;;;;5044800;28;20459;-67
2022/11/29 13:09:56;;;;;;;2.50;2.40;;;;;;;;;;5046595;28;20824;-67
2022/11/29 13:12:25;;;;;;;3.83;2.90;;;;;;;;;;5043048;28;20496;-69
2022/11/29 13:14:59;;;;;;;3.43;2.73;;;;;;;;;;5044891;28;20469;-68
2022/11/29 13:17:25;;;;;;;2.77;1.97;;;;;;;;;;5047565;28;20510;-67
2022/11/29 13:20:14;;;;;;;3.33;3.00;;;;;;;;;;5049007;28;20517;-67
2022/11/29 13:22:45;;;;;;;3.87;3.50;;;;;;;;;;5046029;28;20507;-68
2022/11/29 13:25:17;;;;;;;4.47;3.27;;;;;;;;;;5045087;28;20951;-68
2022/11/29 13:28:03;;;;;;;2.87;2.70;;;;;;;;;;5049032;28;20425;-67
2022/11/29 13:30:29;;;;;;;3.90;3.60;;;;;;;;;;5047987;28;20486;-67
2022/11/29 13:33:11;;;;;;;6.67;3.60;;;;;;;;;;5045395;28;20438;-68
2022/11/29 13:35:41;;;;;;;5.70;3.67;;;;;;;;;;5044046;28;20796;-67
2022/11/29 13:38:26;;;;;;;4.57;3.97;;;;;;;;;;5049326;28;20937;-68
2022/11/29 13:40:55;;;;;;;5.70;4.27;;;;;;;;;;5042573;28;20458;-67
2022/11/29 13:43:40;;;;;;;4.10;3.80;;;;;;;;;;5041002;28;20435;-68
2022/11/29 13:46:06;;;;;;;2.87;2.77;;;;;;;;;;5045215;28;20500;-63
2022/11/29 13:48:33;;;;;;;2.93;2.50;;;;;;;;;;5046690;28;20437;-67
2022/11/29 13:51:19;;;;;;;3.97;3.57;;;;;;;;;;5032681;28;21071;-67
2022/11/29 13:53:48;;;;;;;4.43;4.00;;;;;;;;;;5048891;28;20422;-66
2022/11/29 13:56:25;;;;;;;5.73;4.87;;;;;;;;;;5049303;28;20433;-67
2022/11/29 13:58:52;;;;;;;11.43;5.40;;;;;;;;;;5050135;28;20509;-67
2022/11/29 14:01:19;;;;;;;6.37;5.60;;;;;;;;;;5051271;28;20438;-67
2022/11/29 14:03:49;;;;;;;7.47;5.80;;;;;;;;;;5050095;28;20802;-67
2022/11/29 14:06:30;;;;;;;14.63;6.37;;;;;;;;;;5047574;28;20426;-67
2022/11/29 14:08:56;;;;;;;7.70;4.53;;;;;;;;;;5046588;28;21094;-67
2022/11/29 14:11:32;;;;;;;4.73;4.30;;;;;;;;;;5049906;28;20485;-67
2022/11/29 14:14:01;;;;;;;6.40;4.77;;;;;;;;;;5047564;28;20433;-67
2022/11/29 14:16:27;;;;;;;8.80;6.27;;;;;;;;;;5041267;28;20434;-68
2022/11/29 14:19:18;;;;;;;6.00;4.87;;;;;;;;;;5051087;28;20434;-68
2022/11/29 14:22:06;;;;;;;7.43;6.80;;;;;;;;;;5049317;28;20430;-67
2022/11/29 14:24:34;;;;;;;7.83;6.43;;;;;;;;;;5048059;28;20973;-67
2022/11/29 14:27:09;;;;;;;6.43;5.80;;;;;;;;;;5048405;28;20433;-67
2022/11/29 14:29:51;;;;;;;8.90;5.70;;;;;;;;;;5047283;28;20826;-67
2022/11/29 14:32:26;;;;;;;4.97;4.67;;;;;;;;;;5050013;28;20858;-67
2022/11/29 14:34:53;;;;;;;5.03;4.73;;;;;;;;;;5048865;28;20434;-67
2022/11/29 14:37:30;;;;;;;12.07;4.90;;;;;;;;;;5049969;28;20465;-67
2022/11/29 14:39:57;;;;;;;5.40;4.90;;;;;;;;;;5050046;28;20788;-67
2022/11/29 14:42:25;;;;;;;8.43;5.40;;;;;;;;;;5048520;28;20493;-67
2022/11/29 14:44:51;;;;;;;15.57;6.47;;;;;;;;;;5051504;28;20433;-68
2022/11/29 14:47:22;;;;;;;6.03;5.43;;;;;;;;;;5051719;28;20561;-68
2022/11/29 14:49:48;;;;;;;6.23;5.63;;;;;;;;;;5045498;28;20910;-67
2022/11/29 14:52:14;;;;;;;6.97;6.37;;;;;;;;;;5045085;28;20560;-67
2022/11/29 14:54:54;;;;;;;11.70;6.13;;;;;;;;;;5049535;28;20434;-67
2022/11/29 14:57:38;;;;;;;11.70;5.67;;;;;;;;;;5051303;28;20480;-67
2022/11/29 15:00:10;;;;;;;12.30;6.10;;;;;;;;;;5050775;28;20422;-67
2022/11/29 15:02:42;;;;;;;5.87;5.37;;;;;;;;;;5049132;28;20953;-67
2022/11/29 15:05:14;;;;;;;5.90;5.40;;;;;;;;;;5046125;28;20423;-67
2022/11/29 15:07:46;;;;;;;12.63;7.60;;;;;;;;;;5048751;28;20461;-67
2022/11/29 15:10:23;;;;;;;9.70;6.40;;;;;;;;;;5049963;28;20989;-67
2022/11/29 15:12:50;;;;;;;8.33;6.70;;;;;;;;;;5047105;28;20429;-66
2022/11/29 15:15:19;;;;;;;10.37;7.53;;;;;;;;;;5048663;28;20476;-68